Acornridge, Missouri
Current Conditions -  °F | °C
As of 8:53 PM on Wednesday 22 Oct 2014 (Local Time) from KPOF Reporting Station
Clear Clear  
Wind Chill: 47°   Ceiling: Unl
Heat Index: 47°   Visibility: 8mi
Dew Point: 42°   Wind: 0mph
Humidity: 83%   Direction: NA
Pressure: 30.2"   Gusts: NA
Location:  36.9506°N, 90.1582°W
Report Text: KPOF 230153Z AUTO 00000KT 8SM CLR 08/06 A3020 RMK AO2 SLP230 T00830056
Loading
Personal Weather Stations






























Interactive Weather Map
Tropical Storm Tracking
New forecast layout! Learn more

10-Day Weather Forecast

Advertisements
Track Severe Weather on mobile